<?xml version="1.0" encoding="utf-8"?>
<gpx xmlns:xsi="http://www.w3.org/2001/XMLSchema-instance" xmlns:xsd="http://www.w3.org/2001/XMLSchema" version="1.1" creator="Shapelink.com" xmlns="http://www.topografix.com/GPX/1/1" xmlns:gpxtpx="http://www.garmin.com/xmlschemas/TrackPointExtension/v1">
  <metadata>
    <name>Övrigt 1.10 km, 2020-08-29</name>
    <desc></desc>
    <author><name>Marian Moron</name></author> 
    <time>2020-08-29T20:41:04Z</time>
  </metadata>
  <trk>
    <name>Övrigt 1.10 km, 2020-08-29</name>
    <trkseg>
      <trkpt lat="51.229930898366" lon="4.457967410617">
        <ele>0</ele>
        <time>2020-08-29T20:41:04Z</time>
      </trkpt>
      <trkpt lat="51.229888402133" lon="4.458106382519">
        <ele>0</ele>
        <time>2020-08-29T20:41:21Z</time>
      </trkpt>
      <trkpt lat="51.229998037385" lon="4.458622372283">
        <ele>0</ele>
        <time>2020-08-29T20:42:01Z</time>
      </trkpt>
      <trkpt lat="51.230095435063" lon="4.45877433613">
        <ele>0</ele>
        <time>2020-08-29T20:42:20Z</time>
      </trkpt>
      <trkpt lat="51.230121083677" lon="4.458846169013">
        <ele>0</ele>
        <time>2020-08-29T20:42:28Z</time>
      </trkpt>
      <trkpt lat="51.230272796067" lon="4.458929652737">
        <ele>0</ele>
        <time>2020-08-29T20:42:54Z</time>
      </trkpt>
      <trkpt lat="51.230312610092" lon="4.458919091543">
        <ele>0</ele>
        <time>2020-08-29T20:42:58Z</time>
      </trkpt>
      <trkpt lat="51.230335073584" lon="4.459029062071">
        <ele>0</ele>
        <time>2020-08-29T20:43:08Z</time>
      </trkpt>
      <trkpt lat="51.230369187917" lon="4.459185719782">
        <ele>0</ele>
        <time>2020-08-29T20:43:19Z</time>
      </trkpt>
      <trkpt lat="51.230385448803" lon="4.459281357261">
        <ele>0.6</ele>
        <time>2020-08-29T20:43:32Z</time>
      </trkpt>
      <trkpt lat="51.230398440748" lon="4.459460059369">
        <ele>1.2</ele>
        <time>2020-08-29T20:43:43Z</time>
      </trkpt>
      <trkpt lat="51.230369271736" lon="4.459635073441">
        <ele>1.6</ele>
        <time>2020-08-29T20:43:56Z</time>
      </trkpt>
      <trkpt lat="51.230374384695" lon="4.459687376497">
        <ele>1.8</ele>
        <time>2020-08-29T20:44:06Z</time>
      </trkpt>
      <trkpt lat="51.230611341008" lon="4.459885859889">
        <ele>1.6</ele>
        <time>2020-08-29T20:44:54Z</time>
      </trkpt>
      <trkpt lat="51.230636821984" lon="4.460128432075">
        <ele>0.8</ele>
        <time>2020-08-29T20:45:13Z</time>
      </trkpt>
      <trkpt lat="51.230600360719" lon="4.460726396821">
        <ele>2.6</ele>
        <time>2020-08-29T20:47:00Z</time>
      </trkpt>
      <trkpt lat="51.230567419852" lon="4.460728324658">
        <ele>3.4</ele>
        <time>2020-08-29T20:47:03Z</time>
      </trkpt>
      <trkpt lat="51.230501119023" lon="4.460748357399">
        <ele>15.2</ele>
        <time>2020-08-29T20:47:24Z</time>
      </trkpt>
      <trkpt lat="51.230376563989" lon="4.460781130628">
        <ele>10.6</ele>
        <time>2020-08-29T20:47:47Z</time>
      </trkpt>
      <trkpt lat="51.229961240844" lon="4.460934854674">
        <ele>10.8</ele>
        <time>2020-08-29T20:48:48Z</time>
      </trkpt>
      <trkpt lat="51.229870800143" lon="4.46093351357">
        <ele>14.8</ele>
        <time>2020-08-29T20:49:02Z</time>
      </trkpt>
      <trkpt lat="51.229745993652" lon="4.461043819374">
        <ele>15.2</ele>
        <time>2020-08-29T20:49:19Z</time>
      </trkpt>
      <trkpt lat="51.229318265295" lon="4.461188658606">
        <ele>5.2</ele>
        <time>2020-08-29T20:49:58Z</time>
      </trkpt>
      <trkpt lat="51.229219191237" lon="4.461210786822">
        <ele>3.6</ele>
        <time>2020-08-29T20:50:12Z</time>
      </trkpt>
      <trkpt lat="51.228791798156" lon="4.461466183315">
        <ele>24.2</ele>
        <time>2020-08-29T20:50:57Z</time>
      </trkpt>
      <trkpt lat="51.228663555086" lon="4.461325199757">
        <ele>19</ele>
        <time>2020-08-29T20:51:05Z</time>
      </trkpt>
      <trkpt lat="51.228465155513" lon="4.460896381753">
        <ele>8</ele>
        <time>2020-08-29T20:51:38Z</time>
      </trkpt>
      <trkpt lat="51.228186708795" lon="4.460560099925">
        <ele>2.2</ele>
        <time>2020-08-29T20:52:35Z</time>
      </trkpt>
      <trkpt lat="51.22780156049" lon="4.460562530676">
        <ele>14</ele>
        <time>2020-08-29T20:54:08Z</time>
      </trkpt>
      <trkpt lat="51.227636688517" lon="4.460757409851">
        <ele>7.2</ele>
        <time>2020-08-29T20:54:55Z</time>
      </trkpt>
      <trkpt lat="51.227561167598" lon="4.460809293812">
        <ele>26.2</ele>
        <time>2020-08-29T20:55:19Z</time>
      </trkpt>
      <trkpt lat="51.227349524623" lon="4.460161708218">
        <ele>21.6</ele>
        <time>2020-08-29T20:55:49Z</time>
      </trkpt>
      <trkpt lat="51.227238883543" lon="4.459867503528">
        <ele>14.6</ele>
        <time>2020-08-29T20:56:11Z</time>
      </trkpt>
      <trkpt lat="51.227247768357" lon="4.459687711773">
        <ele>9.2</ele>
        <time>2020-08-29T20:56:21Z</time>
      </trkpt>
      <trkpt lat="51.227151041231" lon="4.459415802937">
        <ele>0</ele>
        <time>2020-08-29T20:56:35Z</time>
      </trkpt>
      <trkpt lat="51.227142072598" lon="4.459384035536">
        <ele>0</ele>
        <time>2020-08-29T20:56:37Z</time>
      </trkpt>
      <trkpt lat="51.227128661558" lon="4.459355285619">
        <ele>0</ele>
        <time>2020-08-29T20:56:39Z</time>
      </trkpt>
      <trkpt lat="51.227122123676" lon="4.459285883487">
        <ele>0</ele>
        <time>2020-08-29T20:56:45Z</time>
      </trkpt>
      <trkpt lat="51.227119944382" lon="4.45925378081">
        <ele>0</ele>
        <time>2020-08-29T20:56:47Z</time>
      </trkpt>
      <trkpt lat="51.227124638246" lon="4.459200388107">
        <ele>1</ele>
        <time>2020-08-29T20:56:51Z</time>
      </trkpt>
      <trkpt lat="51.227117765088" lon="4.459141966264">
        <ele>2.6</ele>
        <time>2020-08-29T20:56:57Z</time>
      </trkpt>
      <trkpt lat="51.227168224126" lon="4.459078431462">
        <ele>3.4</ele>
        <time>2020-08-29T20:57:06Z</time>
      </trkpt>
      <trkpt lat="51.227239470276" lon="4.459032750107">
        <ele>6.2</ele>
        <time>2020-08-29T20:57:17Z</time>
      </trkpt>
      <trkpt lat="51.227368970631" lon="4.458954211704">
        <ele>6.2</ele>
        <time>2020-08-29T20:57:29Z</time>
      </trkpt>
      <trkpt lat="51.227638616354" lon="4.458845163185">
        <ele>17</ele>
        <time>2020-08-29T20:57:56Z</time>
      </trkpt>
      <trkpt lat="51.227770212184" lon="4.458744245109">
        <ele>13.6</ele>
        <time>2020-08-29T20:58:06Z</time>
      </trkpt>
      <trkpt lat="51.227947992283" lon="4.458621450274">
        <ele>4.6</ele>
        <time>2020-08-29T20:58:18Z</time>
      </trkpt>
      <trkpt lat="51.228025441039" lon="4.458582977353">
        <ele>5.6</ele>
        <time>2020-08-29T20:58:25Z</time>
      </trkpt>
      <trkpt lat="51.228237838385" lon="4.45845666212">
        <ele>1.4</ele>
        <time>2020-08-29T20:58:43Z</time>
      </trkpt>
      <trkpt lat="51.228399525236" lon="4.458382314667">
        <ele>1.8</ele>
        <time>2020-08-29T20:58:55Z</time>
      </trkpt>
      <trkpt lat="51.228601277569" lon="4.458190033881">
        <ele>0</ele>
        <time>2020-08-29T20:59:15Z</time>
      </trkpt>
      <trkpt lat="51.229066221562" lon="4.458135970626">
        <ele>0.4</ele>
        <time>2020-08-29T20:59:57Z</time>
      </trkpt>
      <trkpt lat="51.229182813791" lon="4.458124906518">
        <ele>4.2</ele>
        <time>2020-08-29T21:00:10Z</time>
      </trkpt>
      <trkpt lat="51.229609955415" lon="4.457912928267">
        <ele>5.4</ele>
        <time>2020-08-29T21:00:54Z</time>
      </trkpt>
    </trkseg>
  </trk>
</gpx>